createdAt,value
2023-01-11T00:00:03.450Z,946.33
2023-01-11T00:00:13.440Z,946.36
2023-01-11T00:00:23.446Z,946.33
2023-01-11T00:00:33.438Z,946.33
2023-01-11T00:00:43.444Z,946.28
2023-01-11T00:00:53.440Z,946.28
2023-01-11T00:01:03.442Z,946.30
2023-01-11T00:01:13.443Z,946.29
2023-01-11T00:01:23.442Z,946.30
2023-01-11T00:01:33.444Z,946.28
2023-01-11T00:01:43.447Z,946.25
2023-01-11T00:01:53.529Z,946.26
2023-01-11T00:02:03.482Z,946.29
2023-01-11T00:02:13.510Z,946.27
2023-01-11T00:02:23.481Z,946.27
2023-01-11T00:02:33.501Z,946.27
2023-01-11T00:02:43.453Z,946.25
2023-01-11T00:02:53.451Z,946.20
2023-01-11T00:03:03.461Z,946.28
2023-01-11T00:03:13.472Z,946.23
2023-01-11T00:03:23.454Z,946.25
2023-01-11T00:03:33.451Z,946.25
2023-01-11T00:03:43.454Z,946.19
2023-01-11T00:03:53.455Z,946.22
2023-01-11T00:04:03.459Z,946.20
2023-01-11T00:04:13.493Z,946.20
2023-01-11T00:04:23.502Z,946.14
2023-01-11T00:04:33.474Z,946.17
2023-01-11T00:04:43.494Z,946.17
2023-01-11T00:04:53.457Z,946.18
2023-01-11T00:05:03.468Z,946.19
2023-01-11T00:05:13.461Z,946.20
2023-01-11T00:05:23.461Z,946.17
2023-01-11T00:05:33.461Z,946.21
2023-01-11T00:05:43.467Z,946.21
2023-01-11T00:05:53.470Z,946.19
2023-01-11T00:06:03.480Z,946.16
2023-01-11T00:06:13.466Z,946.15
2023-01-11T00:06:23.557Z,946.08
2023-01-11T00:06:33.544Z,946.11
2023-01-11T00:06:43.506Z,946.14
2023-01-11T00:06:53.503Z,946.11
2023-01-11T00:07:03.471Z,946.12
2023-01-11T00:07:13.482Z,946.13
2023-01-11T00:07:23.480Z,946.08
2023-01-11T00:07:33.470Z,946.11
2023-01-11T00:07:43.472Z,946.09
2023-01-11T00:07:53.477Z,946.14
2023-01-11T00:08:03.478Z,946.12
2023-01-11T00:08:13.477Z,946.14
2023-01-11T00:08:23.481Z,946.11
2023-01-11T00:08:33.483Z,946.08
2023-01-11T00:08:43.511Z,946.12
2023-01-11T00:08:53.480Z,946.13
2023-01-11T00:09:03.480Z,946.08
2023-01-11T00:09:13.484Z,946.12
2023-01-11T00:09:23.480Z,946.08
2023-01-11T00:09:33.478Z,946.10
2023-01-11T00:09:43.484Z,946.05
2023-01-11T00:09:53.481Z,946.07
2023-01-11T00:10:03.483Z,946.08
2023-01-11T00:10:13.488Z,946.06
2023-01-11T00:10:23.486Z,946.10
2023-01-11T00:10:33.485Z,946.08
2023-01-11T00:10:43.488Z,946.07
2023-01-11T00:10:53.492Z,946.08
2023-01-11T00:11:03.519Z,946.10
2023-01-11T00:11:13.490Z,946.08
2023-01-11T00:11:23.495Z,946.07
2023-01-11T00:11:33.494Z,946.12
2023-01-11T00:11:43.505Z,946.03
2023-01-11T00:11:53.492Z,946.02
2023-01-11T00:12:03.490Z,946.04
2023-01-11T00:12:13.492Z,946.04
2023-01-11T00:12:23.493Z,946.02
2023-01-11T00:12:33.499Z,946.02
2023-01-11T00:12:43.493Z,946.04
2023-01-11T00:12:53.493Z,946.04
2023-01-11T00:13:03.499Z,946.00
2023-01-11T00:13:13.495Z,946.02
2023-01-11T00:13:23.502Z,946.00
2023-01-11T00:13:33.545Z,946.01
2023-01-11T00:13:43.498Z,946.03
2023-01-11T00:13:53.500Z,946.08
2023-01-11T00:14:03.507Z,945.94
2023-01-11T00:14:13.504Z,945.96
2023-01-11T00:14:23.482Z,946.00
2023-01-11T00:14:33.503Z,945.97
2023-01-11T00:14:43.526Z,945.96
2023-01-11T00:14:53.504Z,945.98
2023-01-11T00:15:03.513Z,945.94
2023-01-11T00:15:13.505Z,945.94
2023-01-11T00:15:23.507Z,945.96
2023-01-11T00:15:33.515Z,945.96
2023-01-11T00:15:43.588Z,945.97
2023-01-11T00:15:53.534Z,945.96
2023-01-11T00:16:03.563Z,945.97
2023-01-11T00:16:13.533Z,945.96
2023-01-11T00:16:23.557Z,946.01
2023-01-11T00:16:33.509Z,946.03
2023-01-11T00:16:43.513Z,946.02
2023-01-11T00:16:53.522Z,946.00
2023-01-11T00:17:03.513Z,946.01
2023-01-11T00:17:13.513Z,946.03
2023-01-11T00:17:23.518Z,946.00
2023-01-11T00:17:33.515Z,945.97
2023-01-11T00:17:43.518Z,946.00
2023-01-11T00:17:53.530Z,946.01
2023-01-11T00:18:03.524Z,946.02
2023-01-11T00:18:13.521Z,945.95
2023-01-11T00:18:23.519Z,945.94
2023-01-11T00:18:33.523Z,945.93
2023-01-11T00:18:43.519Z,945.95
2023-01-11T00:18:53.522Z,945.94
2023-01-11T00:19:03.521Z,945.96
2023-01-11T00:19:13.539Z,945.99
2023-01-11T00:19:23.527Z,945.91
2023-01-11T00:19:33.530Z,945.99
2023-01-11T00:19:43.527Z,945.94
2023-01-11T00:19:53.533Z,945.98
2023-01-11T00:20:03.528Z,945.99
2023-01-11T00:20:13.529Z,945.95
2023-01-11T00:20:23.527Z,945.98
2023-01-11T00:20:33.529Z,945.94
2023-01-11T00:20:43.538Z,945.97
2023-01-11T00:20:53.538Z,945.96
2023-01-11T00:21:03.530Z,945.95
2023-01-11T00:21:13.546Z,945.95
2023-01-11T00:21:23.535Z,945.99
2023-01-11T00:21:33.537Z,945.98
2023-01-11T00:21:43.538Z,945.98
2023-01-11T00:21:53.534Z,945.99
2023-01-11T00:22:03.537Z,945.98
2023-01-11T00:22:13.539Z,946.00
2023-01-11T00:22:23.540Z,946.01
2023-01-11T00:22:33.563Z,946.01
2023-01-11T00:22:43.548Z,946.01
2023-01-11T00:22:53.540Z,945.98
2023-01-11T00:23:03.541Z,946.02
2023-01-11T00:23:13.555Z,946.08
2023-01-11T00:23:23.543Z,946.03
2023-01-11T00:23:33.542Z,946.05
2023-01-11T00:23:43.539Z,946.01
2023-01-11T00:23:53.568Z,946.01
2023-01-11T00:24:03.545Z,946.05
2023-01-11T00:24:13.548Z,946.04
2023-01-11T00:24:23.547Z,946.03
2023-01-11T00:24:33.548Z,946.06
2023-01-11T00:24:43.547Z,946.00
2023-01-11T00:24:53.554Z,946.02
2023-01-11T00:25:03.553Z,946.05
2023-01-11T00:25:13.555Z,946.04
2023-01-11T00:25:23.553Z,946.00
2023-01-11T00:25:33.558Z,945.99
2023-01-11T00:25:43.552Z,945.98
2023-01-11T00:25:53.550Z,945.99
2023-01-11T00:26:03.557Z,945.97
2023-01-11T00:26:13.552Z,945.98
2023-01-11T00:26:23.538Z,945.94
2023-01-11T00:26:33.571Z,945.97
2023-01-11T00:26:43.558Z,946.03
2023-01-11T00:26:53.565Z,946.03
2023-01-11T00:27:03.557Z,946.03
2023-01-11T00:27:13.562Z,946.06
2023-01-11T00:27:23.556Z,946.09
2023-01-11T00:27:33.555Z,946.06
2023-01-11T00:27:43.559Z,946.07
2023-01-11T00:27:53.557Z,946.05
2023-01-11T00:28:03.541Z,946.06
2023-01-11T00:28:13.559Z,946.06
2023-01-11T00:28:23.561Z,946.06
2023-01-11T00:28:33.562Z,946.01
2023-01-11T00:28:43.560Z,946.01
2023-01-11T00:28:53.569Z,946.01
2023-01-11T00:29:03.578Z,946.05
2023-01-11T00:29:13.565Z,945.97
2023-01-11T00:29:23.573Z,946.02
2023-01-11T00:29:33.570Z,946.02
2023-01-11T00:29:43.571Z,946.02
2023-01-11T00:29:53.551Z,946.02
2023-01-11T00:30:03.568Z,946.01
2023-01-11T00:30:13.592Z,945.99
2023-01-11T00:30:23.559Z,945.97
2023-01-11T00:30:33.572Z,945.99
2023-01-11T00:30:43.585Z,945.97
2023-01-11T00:30:53.651Z,946.01
2023-01-11T00:31:03.593Z,946.00
2023-01-11T00:31:13.616Z,946.00
2023-01-11T00:31:23.629Z,946.00
2023-01-11T00:31:33.595Z,945.97
2023-01-11T00:31:43.587Z,946.01
2023-01-11T00:31:53.581Z,945.98
2023-01-11T00:32:03.583Z,946.00
2023-01-11T00:32:13.583Z,946.02
2023-01-11T00:32:23.587Z,945.96
2023-01-11T00:32:33.586Z,945.94
2023-01-11T00:32:43.583Z,945.92
2023-01-11T00:32:53.586Z,945.95
2023-01-11T00:33:03.590Z,945.94
2023-01-11T00:33:13.587Z,945.90
2023-01-11T00:33:23.590Z,945.91
2023-01-11T00:33:33.589Z,945.93
2023-01-11T00:33:43.586Z,945.94
2023-01-11T00:33:53.598Z,945.93
2023-01-11T00:34:03.603Z,945.85
2023-01-11T00:34:13.589Z,945.93
2023-01-11T00:34:23.597Z,945.93
2023-01-11T00:34:33.593Z,945.88
2023-01-11T00:34:43.637Z,945.85
2023-01-11T00:34:53.594Z,945.81
2023-01-11T00:35:03.615Z,945.83
2023-01-11T00:35:13.594Z,945.83
2023-01-11T00:35:23.607Z,945.85
2023-01-11T00:35:33.599Z,945.91
2023-01-11T00:35:43.599Z,945.87
2023-01-11T00:35:53.597Z,945.84
2023-01-11T00:36:03.601Z,945.81
2023-01-11T00:36:13.606Z,945.82
2023-01-11T00:36:23.600Z,945.85
2023-01-11T00:36:33.603Z,945.87
2023-01-11T00:36:43.604Z,945.87
2023-01-11T00:36:53.603Z,945.88
2023-01-11T00:37:03.605Z,945.87
2023-01-11T00:37:13.629Z,945.86
2023-01-11T00:37:23.607Z,945.84
2023-01-11T00:37:33.606Z,945.82
2023-01-11T00:37:43.622Z,945.82
2023-01-11T00:37:53.608Z,945.79
2023-01-11T00:38:03.609Z,945.82
2023-01-11T00:38:13.615Z,945.83
2023-01-11T00:38:23.622Z,945.83
2023-01-11T00:38:33.613Z,945.83
2023-01-11T00:38:43.637Z,945.84
2023-01-11T00:38:53.632Z,945.89
2023-01-11T00:39:03.623Z,945.78
2023-01-11T00:39:13.618Z,945.86
2023-01-11T00:39:23.622Z,945.85
2023-01-11T00:39:33.630Z,945.87
2023-01-11T00:39:43.625Z,945.85
2023-01-11T00:39:53.628Z,945.88
2023-01-11T00:40:03.621Z,945.91
2023-01-11T00:40:13.622Z,945.87
2023-01-11T00:40:23.629Z,945.89
2023-01-11T00:40:33.624Z,945.90
2023-01-11T00:40:43.636Z,945.93
2023-01-11T00:40:53.626Z,945.90
2023-01-11T00:41:03.627Z,945.94
2023-01-11T00:41:13.635Z,945.89
2023-01-11T00:41:23.635Z,945.89
2023-01-11T00:41:33.638Z,945.94
2023-01-11T00:41:43.632Z,945.89
2023-01-11T00:41:53.637Z,945.89
2023-01-11T00:42:03.636Z,945.92
2023-01-11T00:42:13.636Z,945.90
2023-01-11T00:42:23.650Z,945.93
2023-01-11T00:42:33.640Z,945.90
2023-01-11T00:42:43.635Z,945.95
2023-01-11T00:42:53.636Z,945.93
2023-01-11T00:43:03.641Z,945.89
2023-01-11T00:43:13.638Z,945.89
2023-01-11T00:43:23.621Z,945.87
2023-01-11T00:43:33.637Z,945.93
2023-01-11T00:43:43.655Z,945.89
2023-01-11T00:43:53.640Z,945.95
2023-01-11T00:44:03.643Z,945.94
2023-01-11T00:44:13.647Z,945.95
2023-01-11T00:44:23.655Z,945.96
2023-01-11T00:44:33.645Z,945.94
2023-01-11T00:44:43.645Z,945.94
2023-01-11T00:44:53.648Z,945.94
2023-01-11T00:45:03.647Z,945.94
2023-01-11T00:45:13.658Z,945.97
2023-01-11T00:45:23.655Z,945.90
2023-01-11T00:45:33.649Z,945.90
2023-01-11T00:45:43.651Z,945.90
2023-01-11T00:45:53.710Z,945.91
2023-01-11T00:46:03.683Z,945.92
2023-01-11T00:46:13.669Z,945.90
2023-01-11T00:46:23.703Z,945.92
2023-01-11T00:46:33.667Z,945.91
2023-01-11T00:46:43.654Z,945.92
2023-01-11T00:46:53.659Z,945.94
2023-01-11T00:47:03.656Z,945.90
2023-01-11T00:47:13.641Z,945.92
2023-01-11T00:47:23.657Z,945.91
2023-01-11T00:47:33.654Z,945.92
2023-01-11T00:47:43.668Z,945.91
2023-01-11T00:47:53.657Z,945.93
2023-01-11T00:48:03.663Z,945.91
2023-01-11T00:48:13.673Z,945.91
2023-01-11T00:48:23.661Z,945.90
2023-01-11T00:48:33.661Z,945.91
2023-01-11T00:48:43.674Z,945.85
2023-01-11T00:48:53.663Z,945.88
2023-01-11T00:49:03.672Z,945.89
2023-01-11T00:49:13.665Z,945.89
2023-01-11T00:49:23.664Z,945.86
2023-01-11T00:49:33.693Z,945.84
2023-01-11T00:49:43.690Z,945.91
2023-01-11T00:49:53.668Z,945.88
2023-01-11T00:50:03.681Z,945.84
2023-01-11T00:50:13.679Z,945.87
2023-01-11T00:50:23.668Z,945.89
2023-01-11T00:50:33.669Z,945.86
2023-01-11T00:50:43.672Z,945.85
2023-01-11T00:50:53.679Z,945.82
2023-01-11T00:51:03.672Z,945.79
2023-01-11T00:51:13.676Z,945.79
2023-01-11T00:51:23.673Z,945.80
2023-01-11T00:51:33.674Z,945.82
2023-01-11T00:51:43.673Z,945.82
2023-01-11T00:51:53.677Z,945.80
2023-01-11T00:52:03.674Z,945.79
2023-01-11T00:52:13.676Z,945.81
2023-01-11T00:52:23.676Z,945.81
2023-01-11T00:52:33.679Z,945.78
2023-01-11T00:52:43.686Z,945.78
2023-01-11T00:52:53.681Z,945.80
2023-01-11T00:53:03.677Z,945.79
2023-01-11T00:53:13.682Z,945.79
2023-01-11T00:53:23.709Z,945.80
2023-01-11T00:53:33.690Z,945.80
2023-01-11T00:53:43.683Z,945.79
2023-01-11T00:53:53.685Z,945.81
2023-01-11T00:54:03.683Z,945.77
2023-01-11T00:54:13.683Z,945.79
2023-01-11T00:54:23.681Z,945.81
2023-01-11T00:54:33.671Z,945.79
2023-01-11T00:54:43.723Z,945.83
2023-01-11T00:54:53.688Z,945.81
2023-01-11T00:55:03.683Z,945.81
2023-01-11T00:55:13.684Z,945.81
2023-01-11T00:55:23.687Z,945.75
2023-01-11T00:55:33.686Z,945.79
2023-01-11T00:55:43.686Z,945.76
2023-01-11T00:55:53.687Z,945.81
2023-01-11T00:56:03.688Z,945.80
2023-01-11T00:56:13.688Z,945.81
2023-01-11T00:56:23.691Z,945.76
2023-01-11T00:56:33.689Z,945.75
2023-01-11T00:56:43.691Z,945.76
2023-01-11T00:56:53.702Z,945.80
2023-01-11T00:57:03.693Z,945.81
2023-01-11T00:57:13.695Z,945.76
2023-01-11T00:57:23.702Z,945.82
2023-01-11T00:57:33.695Z,945.78
2023-01-11T00:57:43.696Z,945.78
2023-01-11T00:57:53.697Z,945.73
2023-01-11T00:58:03.697Z,945.77
2023-01-11T00:58:13.699Z,945.76
2023-01-11T00:58:23.698Z,945.75
2023-01-11T00:58:33.698Z,945.76
2023-01-11T00:58:43.699Z,945.74
2023-01-11T00:58:53.704Z,945.74
2023-01-11T00:59:03.701Z,945.72
2023-01-11T00:59:13.701Z,945.75
2023-01-11T00:59:23.719Z,945.74
2023-01-11T00:59:33.701Z,945.73
2023-01-11T00:59:43.703Z,945.77
2023-01-11T00:59:53.718Z,945.78
2023-01-11T01:00:03.708Z,945.78
2023-01-11T01:00:13.713Z,945.78
2023-01-11T01:00:23.736Z,945.77
2023-01-11T01:00:33.717Z,945.78
2023-01-11T01:00:43.708Z,945.79
2023-01-11T01:00:53.732Z,945.85
2023-01-11T01:01:03.746Z,945.73
2023-01-11T01:01:13.719Z,945.75
2023-01-11T01:01:23.735Z,945.76
2023-01-11T01:01:33.805Z,945.79
2023-01-11T01:01:43.779Z,945.77
2023-01-11T01:01:53.716Z,945.77
2023-01-11T01:02:03.712Z,945.77
2023-01-11T01:02:13.752Z,945.75
2023-01-11T01:02:23.728Z,945.80
2023-01-11T01:02:33.827Z,945.80
2023-01-11T01:02:43.784Z,945.79
2023-01-11T01:02:53.820Z,945.78
2023-01-11T01:03:03.716Z,945.77
2023-01-11T01:03:13.717Z,945.79
2023-01-11T01:03:23.717Z,945.78
2023-01-11T01:03:33.718Z,945.80
2023-01-11T01:03:43.726Z,945.85
2023-01-11T01:03:53.721Z,945.82
2023-01-11T01:04:03.722Z,945.82
2023-01-11T01:04:13.728Z,945.83
2023-01-11T01:04:23.725Z,945.81
2023-01-11T01:04:33.732Z,945.84
2023-01-11T01:04:43.726Z,945.88
2023-01-11T01:04:53.726Z,945.84
2023-01-11T01:05:03.724Z,945.82
2023-01-11T01:05:13.729Z,945.82
2023-01-11T01:05:23.732Z,945.83
2023-01-11T01:05:33.740Z,945.84
2023-01-11T01:05:43.739Z,945.88
2023-01-11T01:05:53.728Z,945.84
2023-01-11T01:06:03.732Z,945.85
2023-01-11T01:06:13.735Z,945.83
2023-01-11T01:06:23.742Z,945.83
2023-01-11T01:06:33.759Z,945.86
2023-01-11T01:06:43.840Z,945.79
2023-01-11T01:06:53.767Z,945.81
2023-01-11T01:07:03.736Z,945.81
2023-01-11T01:07:13.732Z,945.85
2023-01-11T01:07:23.738Z,945.84
2023-01-11T01:07:33.736Z,945.83
2023-01-11T01:07:43.737Z,945.83
2023-01-11T01:07:53.740Z,945.84
2023-01-11T01:08:03.735Z,945.87
2023-01-11T01:08:13.737Z,945.87
2023-01-11T01:08:23.737Z,945.88
2023-01-11T01:08:33.737Z,945.84
2023-01-11T01:08:43.740Z,945.81
2023-01-11T01:08:53.741Z,945.81
2023-01-11T01:09:03.741Z,945.84
2023-01-11T01:09:13.748Z,945.84
2023-01-11T01:09:23.741Z,945.85
2023-01-11T01:09:33.749Z,945.85
2023-01-11T01:09:43.744Z,945.87
2023-01-11T01:09:53.745Z,945.85
2023-01-11T01:10:03.743Z,945.81
2023-01-11T01:10:13.756Z,945.84
2023-01-11T01:10:23.746Z,945.83
2023-01-11T01:10:33.746Z,945.85
2023-01-11T01:10:43.749Z,945.82
2023-01-11T01:10:53.751Z,945.83
2023-01-11T01:11:03.736Z,945.84
2023-01-11T01:11:13.748Z,945.82
2023-01-11T01:11:23.749Z,945.83
2023-01-11T01:11:33.750Z,945.83
2023-01-11T01:11:43.739Z,945.83
2023-01-11T01:11:53.758Z,945.88
2023-01-11T01:12:03.753Z,945.86
2023-01-11T01:12:13.753Z,945.84
2023-01-11T01:12:23.755Z,945.89
2023-01-11T01:12:33.757Z,945.85
2023-01-11T01:12:43.756Z,945.85
2023-01-11T01:12:53.757Z,945.86
2023-01-11T01:13:03.763Z,945.86
2023-01-11T01:13:13.766Z,945.88
2023-01-11T01:13:23.768Z,945.87
2023-01-11T01:13:33.760Z,945.87
2023-01-11T01:13:43.759Z,945.93
2023-01-11T01:13:53.761Z,945.92
2023-01-11T01:14:03.762Z,945.91
2023-01-11T01:14:13.765Z,945.92
2023-01-11T01:14:23.763Z,945.90
2023-01-11T01:14:33.762Z,945.91
2023-01-11T01:14:43.762Z,945.89
2023-01-11T01:14:53.786Z,945.91
2023-01-11T01:15:03.811Z,945.87
2023-01-11T01:15:13.766Z,945.88
2023-01-11T01:15:23.775Z,945.92
2023-01-11T01:15:33.832Z,945.90
2023-01-11T01:15:43.792Z,945.90
2023-01-11T01:15:53.797Z,945.89
2023-01-11T01:16:03.872Z,945.87
2023-01-11T01:16:13.860Z,945.88
2023-01-11T01:16:23.753Z,945.89
2023-01-11T01:16:33.773Z,945.88
2023-01-11T01:16:43.771Z,945.86
2023-01-11T01:16:53.798Z,945.86
2023-01-11T01:17:03.781Z,945.88
2023-01-11T01:17:13.757Z,945.88
2023-01-11T01:17:23.778Z,945.88
2023-01-11T01:17:33.780Z,945.86
2023-01-11T01:17:43.774Z,945.88
2023-01-11T01:17:53.779Z,945.89
2023-01-11T01:18:03.776Z,945.88
2023-01-11T01:18:13.787Z,945.87
2023-01-11T01:18:23.785Z,945.87
2023-01-11T01:18:33.781Z,945.85
2023-01-11T01:18:43.781Z,945.87
2023-01-11T01:18:53.790Z,945.86
2023-01-11T01:19:03.780Z,945.88
2023-01-11T01:19:13.766Z,945.86
2023-01-11T01:19:23.793Z,945.85
2023-01-11T01:19:33.788Z,945.87
2023-01-11T01:19:43.785Z,945.84
2023-01-11T01:19:53.810Z,945.85
2023-01-11T01:20:03.788Z,945.81
2023-01-11T01:20:13.797Z,945.86
2023-01-11T01:20:23.827Z,945.90
2023-01-11T01:20:33.791Z,945.90
2023-01-11T01:20:43.794Z,945.85
2023-01-11T01:20:53.802Z,945.85
2023-01-11T01:21:03.786Z,945.89
2023-01-11T01:21:13.804Z,945.88
2023-01-11T01:21:23.796Z,945.85
2023-01-11T01:21:33.792Z,945.89
2023-01-11T01:21:43.809Z,945.89
2023-01-11T01:21:53.823Z,945.87
2023-01-11T01:22:03.793Z,945.85
2023-01-11T01:22:13.799Z,945.88
2023-01-11T01:22:23.795Z,945.88
2023-01-11T01:22:33.800Z,945.87
2023-01-11T01:22:43.799Z,945.88
2023-01-11T01:22:53.808Z,945.88
2023-01-11T01:23:03.802Z,945.87
2023-01-11T01:23:13.800Z,945.84
2023-01-11T01:23:23.809Z,945.86
2023-01-11T01:23:33.809Z,945.88
2023-01-11T01:23:43.803Z,945.90
2023-01-11T01:23:53.803Z,945.88
2023-01-11T01:24:03.804Z,945.86
2023-01-11T01:24:13.805Z,945.86
2023-01-11T01:24:23.805Z,945.88
2023-01-11T01:24:33.818Z,945.87
2023-01-11T01:24:43.810Z,945.87
2023-01-11T01:24:54.042Z,945.86
2023-01-11T01:25:03.812Z,945.87
2023-01-11T01:25:13.809Z,945.90
2023-01-11T01:25:23.807Z,945.89
2023-01-11T01:25:33.821Z,945.91
2023-01-11T01:25:43.811Z,945.94
2023-01-11T01:25:53.829Z,945.88
2023-01-11T01:26:03.811Z,945.87
2023-01-11T01:26:13.815Z,945.88
2023-01-11T01:26:23.821Z,945.86
2023-01-11T01:26:33.819Z,945.83
2023-01-11T01:26:43.820Z,945.89
2023-01-11T01:26:53.823Z,945.84
2023-01-11T01:27:03.836Z,945.88
2023-01-11T01:27:13.805Z,945.87
2023-01-11T01:27:23.823Z,945.83
2023-01-11T01:27:33.825Z,945.83
2023-01-11T01:27:43.823Z,945.82
2023-01-11T01:27:53.827Z,945.83
2023-01-11T01:28:03.832Z,945.84
2023-01-11T01:28:13.842Z,945.81
2023-01-11T01:28:23.828Z,945.81
2023-01-11T01:28:33.830Z,945.81
2023-01-11T01:28:43.829Z,945.81
2023-01-11T01:28:53.832Z,945.83
2023-01-11T01:29:03.820Z,945.81
2023-01-11T01:29:13.838Z,945.79
2023-01-11T01:29:23.833Z,945.80
2023-01-11T01:29:33.846Z,945.80
2023-01-11T01:29:43.835Z,945.81
2023-01-11T01:29:53.836Z,945.82
2023-01-11T01:30:03.839Z,945.79
2023-01-11T01:30:13.852Z,945.81
2023-01-11T01:30:23.819Z,945.79
2023-01-11T01:30:33.888Z,945.80
2023-01-11T01:30:43.838Z,945.79
2023-01-11T01:30:53.891Z,945.81
2023-01-11T01:31:03.919Z,945.81
2023-01-11T01:31:13.860Z,945.81
2023-01-11T01:31:23.945Z,945.76
2023-01-11T01:31:33.873Z,945.72
2023-01-11T01:31:43.848Z,945.76
2023-01-11T01:31:53.847Z,945.74
2023-01-11T01:32:03.851Z,945.74
2023-01-11T01:32:13.857Z,945.73
2023-01-11T01:32:23.849Z,945.71
2023-01-11T01:32:33.847Z,945.73
2023-01-11T01:32:43.849Z,945.73
2023-01-11T01:32:53.861Z,945.76
2023-01-11T01:33:03.849Z,945.77
2023-01-11T01:33:13.849Z,945.78
2023-01-11T01:33:23.865Z,945.76
2023-01-11T01:33:33.852Z,945.73
2023-01-11T01:33:43.863Z,945.72
2023-01-11T01:33:53.862Z,945.72
2023-01-11T01:34:03.860Z,945.74
2023-01-11T01:34:13.863Z,945.75
2023-01-11T01:34:23.867Z,945.75
2023-01-11T01:34:33.857Z,945.78
2023-01-11T01:34:43.859Z,945.75
2023-01-11T01:34:53.897Z,945.75
2023-01-11T01:35:03.856Z,945.77
2023-01-11T01:35:13.857Z,945.75
2023-01-11T01:35:23.859Z,945.76
2023-01-11T01:35:33.863Z,945.72
2023-01-11T01:35:43.860Z,945.73
2023-01-11T01:35:53.865Z,945.70
2023-01-11T01:36:03.864Z,945.69
2023-01-11T01:36:13.865Z,945.70
2023-01-11T01:36:23.863Z,945.70
2023-01-11T01:36:33.870Z,945.67
2023-01-11T01:36:43.871Z,945.69
2023-01-11T01:36:53.862Z,945.70
2023-01-11T01:37:03.863Z,945.73
2023-01-11T01:37:13.867Z,945.73
2023-01-11T01:37:23.869Z,945.71
2023-01-11T01:37:33.869Z,945.70
2023-01-11T01:37:43.865Z,945.74
2023-01-11T01:37:53.865Z,945.71
2023-01-11T01:38:03.883Z,945.70
2023-01-11T01:38:13.866Z,945.73
2023-01-11T01:38:23.870Z,945.68
2023-01-11T01:38:33.868Z,945.69
2023-01-11T01:38:43.868Z,945.69
2023-01-11T01:38:53.874Z,945.71
2023-01-11T01:39:03.871Z,945.71
2023-01-11T01:39:13.873Z,945.71
2023-01-11T01:39:23.870Z,945.73
2023-01-11T01:39:33.871Z,945.73
2023-01-11T01:39:43.853Z,945.73
2023-01-11T01:39:53.872Z,945.78
2023-01-11T01:40:03.882Z,945.75
2023-01-11T01:40:13.878Z,945.72
2023-01-11T01:40:23.872Z,945.72
2023-01-11T01:40:33.883Z,945.71
2023-01-11T01:40:43.876Z,945.72
2023-01-11T01:40:53.876Z,945.71
2023-01-11T01:41:03.878Z,945.71
2023-01-11T01:41:13.881Z,945.69
2023-01-11T01:41:23.883Z,945.69
2023-01-11T01:41:33.880Z,945.69
2023-01-11T01:41:43.885Z,945.66
2023-01-11T01:41:53.879Z,945.70
2023-01-11T01:42:03.878Z,945.71
2023-01-11T01:42:13.884Z,945.69
2023-01-11T01:42:23.882Z,945.69
2023-01-11T01:42:33.879Z,945.67
2023-01-11T01:42:43.878Z,945.72
2023-01-11T01:42:53.881Z,945.73
2023-01-11T01:43:03.882Z,945.71
2023-01-11T01:43:13.880Z,945.74
2023-01-11T01:43:23.880Z,945.71
2023-01-11T01:43:33.882Z,945.73
2023-01-11T01:43:43.882Z,945.70
2023-01-11T01:43:53.888Z,945.70
2023-01-11T01:44:03.887Z,945.71
2023-01-11T01:44:13.885Z,945.72
2023-01-11T01:44:23.886Z,945.74
2023-01-11T01:44:33.888Z,945.68
2023-01-11T01:44:43.889Z,945.67
2023-01-11T01:44:53.900Z,945.68
2023-01-11T01:45:03.912Z,945.67
2023-01-11T01:45:13.891Z,945.67
2023-01-11T01:45:23.987Z,945.65
2023-01-11T01:45:33.895Z,945.66
2023-01-11T01:45:43.909Z,945.66
2023-01-11T01:45:53.928Z,945.69
2023-01-11T01:46:03.914Z,945.67
2023-01-11T01:46:13.910Z,945.64
2023-01-11T01:46:23.934Z,945.64
2023-01-11T01:46:33.975Z,945.65
2023-01-11T01:46:43.897Z,945.63
2023-01-11T01:46:53.902Z,945.61
2023-01-11T01:47:03.909Z,945.61
2023-01-11T01:47:13.909Z,945.59
2023-01-11T01:47:23.902Z,945.59
2023-01-11T01:47:33.906Z,945.62
2023-01-11T01:47:43.904Z,945.57
2023-01-11T01:47:53.907Z,945.58
2023-01-11T01:48:03.903Z,945.56
2023-01-11T01:48:13.921Z,945.55
2023-01-11T01:48:23.905Z,945.59
2023-01-11T01:48:33.908Z,945.61
2023-01-11T01:48:43.908Z,945.58
2023-01-11T01:48:53.913Z,945.62
2023-01-11T01:49:03.912Z,945.62
2023-01-11T01:49:13.912Z,945.64
2023-01-11T01:49:23.918Z,945.61
2023-01-11T01:49:33.911Z,945.58
2023-01-11T01:49:43.923Z,945.61
2023-01-11T01:49:53.914Z,945.60
2023-01-11T01:50:03.931Z,945.63
2023-01-11T01:50:13.933Z,945.64
2023-01-11T01:50:23.938Z,945.59
2023-01-11T01:50:33.918Z,945.61
2023-01-11T01:50:43.928Z,945.60
2023-01-11T01:50:53.928Z,945.61
2023-01-11T01:51:03.917Z,945.57
2023-01-11T01:51:13.917Z,945.57
2023-01-11T01:51:23.919Z,945.57
2023-01-11T01:51:33.927Z,945.59
2023-01-11T01:51:43.921Z,945.64
2023-01-11T01:51:53.921Z,945.61
2023-01-11T01:52:03.921Z,945.60
2023-01-11T01:52:13.927Z,945.62
2023-01-11T01:52:23.928Z,945.62
2023-01-11T01:52:33.923Z,945.65
2023-01-11T01:52:43.925Z,945.63
2023-01-11T01:52:53.925Z,945.62
2023-01-11T01:53:03.924Z,945.62
2023-01-11T01:53:13.937Z,945.63
2023-01-11T01:53:23.930Z,945.58
2023-01-11T01:53:33.912Z,945.61
2023-01-11T01:53:43.928Z,945.55
2023-01-11T01:53:53.911Z,945.56
2023-01-11T01:54:03.916Z,945.60
2023-01-11T01:54:13.936Z,945.60
2023-01-11T01:54:23.954Z,945.59
2023-01-11T01:54:33.932Z,945.66
2023-01-11T01:54:43.939Z,945.57
2023-01-11T01:54:53.934Z,945.60
2023-01-11T01:55:03.943Z,945.58
2023-01-11T01:55:13.936Z,945.57
2023-01-11T01:55:23.941Z,945.58
2023-01-11T01:55:33.938Z,945.60
2023-01-11T01:55:43.935Z,945.56
2023-01-11T01:55:53.939Z,945.61
2023-01-11T01:56:03.939Z,945.55
2023-01-11T01:56:13.937Z,945.55
2023-01-11T01:56:23.941Z,945.55
2023-01-11T01:56:33.940Z,945.56
2023-01-11T01:56:43.940Z,945.56
2023-01-11T01:56:53.928Z,945.59
2023-01-11T01:57:03.943Z,945.55
2023-01-11T01:57:13.940Z,945.55
2023-01-11T01:57:23.943Z,945.54
2023-01-11T01:57:33.944Z,945.54
2023-01-11T01:57:43.936Z,945.55
2023-01-11T01:57:53.962Z,945.55
2023-01-11T01:58:03.951Z,945.59
2023-01-11T01:58:13.959Z,945.56
2023-01-11T01:58:23.947Z,945.55
2023-01-11T01:58:33.949Z,945.55
2023-01-11T01:58:43.951Z,945.56
2023-01-11T01:58:53.952Z,945.54
2023-01-11T01:59:03.973Z,945.55
2023-01-11T01:59:13.939Z,945.56
2023-01-11T01:59:23.954Z,945.50
2023-01-11T01:59:33.966Z,945.53
2023-01-11T01:59:43.957Z,945.51
2023-01-11T01:59:53.956Z,945.51
2023-01-11T02:00:03.959Z,945.49
2023-01-11T02:00:13.956Z,945.50
2023-01-11T02:00:23.960Z,945.50
2023-01-11T02:00:33.981Z,945.51
2023-01-11T02:00:43.960Z,945.51
2023-01-11T02:00:53.961Z,945.50
2023-01-11T02:01:03.960Z,945.49
2023-01-11T02:01:13.960Z,945.49
2023-01-11T02:01:23.986Z,945.50
2023-01-11T02:01:34.018Z,945.51
2023-01-11T02:01:44.010Z,945.50
2023-01-11T02:01:54.007Z,945.51
2023-01-11T02:02:03.970Z,945.51
2023-01-11T02:02:13.968Z,945.45
2023-01-11T02:02:24.044Z,945.45
2023-01-11T02:02:34.093Z,945.48
2023-01-11T02:02:44.038Z,945.47
2023-01-11T02:02:53.998Z,945.48
2023-01-11T02:03:04.055Z,945.48
2023-01-11T02:03:13.985Z,945.47
2023-01-11T02:03:23.973Z,945.46
2023-01-11T02:03:33.972Z,945.45
2023-01-11T02:03:43.975Z,945.48
2023-01-11T02:03:53.981Z,945.46
2023-01-11T02:04:03.969Z,945.46
2023-01-11T02:04:13.962Z,945.45
2023-01-11T02:04:23.985Z,945.46
2023-01-11T02:04:33.976Z,945.47
2023-01-11T02:04:43.982Z,945.46